sensor_id;sensor_type;location;lat;lon;timestamp;P1;durP1;ratioP1;P2;durP2;ratioP2
18114;SDS011;9184;54.390;18.620;2024-03-17T00:00:24;20.20;;;4.40;;
18114;SDS011;9184;54.390;18.620;2024-03-17T00:00:55;19.63;;;4.10;;
18114;SDS011;9184;54.390;18.620;2024-03-17T00:01:25;13.17;;;3.33;;
18114;SDS011;9184;54.390;18.620;2024-03-17T00:01:55;18.07;;;3.30;;
18114;SDS011;9184;54.390;18.620;2024-03-17T00:02:26;15.07;;;3.90;;
18114;SDS011;9184;54.390;18.620;2024-03-17T00:02:57;14.80;;;3.30;;
18114;SDS011;9184;54.390;18.620;2024-03-17T00:03:27;10.87;;;2.90;;
18114;SDS011;9184;54.390;18.620;2024-03-17T00:03:59;18.63;;;3.67;;
18114;SDS011;9184;54.390;18.620;2024-03-17T00:04:29;16.30;;;4.03;;
18114;SDS011;9184;54.390;18.620;2024-03-17T00:05:00;15.17;;;3.83;;
18114;SDS011;9184;54.390;18.620;2024-03-17T00:05:30;21.03;;;3.63;;
18114;SDS011;9184;54.390;18.620;2024-03-17T00:06:01;15.57;;;3.80;;
18114;SDS011;9184;54.390;18.620;2024-03-17T00:06:31;13.43;;;4.17;;
18114;SDS011;9184;54.390;18.620;2024-03-17T00:07:02;14.57;;;3.20;;
18114;SDS011;9184;54.390;18.620;2024-03-17T00:07:32;16.27;;;4.00;;
18114;SDS011;9184;54.390;18.620;2024-03-17T00:08:03;16.03;;;4.00;;
18114;SDS011;9184;54.390;18.620;2024-03-17T00:08:35;14.23;;;3.33;;
18114;SDS011;9184;54.390;18.620;2024-03-17T00:09:05;17.43;;;4.00;;
18114;SDS011;9184;54.390;18.620;2024-03-17T00:09:36;22.07;;;4.03;;
18114;SDS011;9184;54.390;18.620;2024-03-17T00:10:07;14.07;;;4.20;;
18114;SDS011;9184;54.390;18.620;2024-03-17T00:10:38;15.10;;;4.47;;
18114;SDS011;9184;54.390;18.620;2024-03-17T00:11:08;22.30;;;5.10;;
18114;SDS011;9184;54.390;18.620;2024-03-17T00:11:39;17.20;;;4.37;;
18114;SDS011;9184;54.390;18.620;2024-03-17T00:12:11;20.07;;;4.17;;
18114;SDS011;9184;54.390;18.620;2024-03-17T00:12:42;14.30;;;3.47;;
18114;SDS011;9184;54.390;18.620;2024-03-17T00:13:12;13.97;;;3.60;;
18114;SDS011;9184;54.390;18.620;2024-03-17T00:13:43;20.57;;;4.33;;
18114;SDS011;9184;54.390;18.620;2024-03-17T00:14:13;23.77;;;4.47;;
18114;SDS011;9184;54.390;18.620;2024-03-17T00:14:44;25.40;;;4.67;;
18114;SDS011;9184;54.390;18.620;2024-03-17T00:15:15;15.60;;;3.60;;
18114;SDS011;9184;54.390;18.620;2024-03-17T00:15:45;15.67;;;4.30;;
18114;SDS011;9184;54.390;18.620;2024-03-17T00:16:16;15.43;;;3.77;;
18114;SDS011;9184;54.390;18.620;2024-03-17T00:16:48;16.80;;;3.67;;
18114;SDS011;9184;54.390;18.620;2024-03-17T00:17:19;14.20;;;3.30;;
18114;SDS011;9184;54.390;18.620;2024-03-17T00:17:51;18.70;;;3.97;;
18114;SDS011;9184;54.390;18.620;2024-03-17T00:18:22;22.03;;;3.77;;
18114;SDS011;9184;54.390;18.620;2024-03-17T00:18:53;14.80;;;3.50;;
18114;SDS011;9184;54.390;18.620;2024-03-17T00:19:23;16.17;;;4.20;;
18114;SDS011;9184;54.390;18.620;2024-03-17T00:19:54;14.88;;;3.25;;
18114;SDS011;9184;54.390;18.620;2024-03-17T00:20:24;17.80;;;4.10;;
18114;SDS011;9184;54.390;18.620;2024-03-17T00:20:55;10.90;;;3.63;;
18114;SDS011;9184;54.390;18.620;2024-03-17T00:21:26;18.10;;;3.60;;
18114;SDS011;9184;54.390;18.620;2024-03-17T00:21:56;12.20;;;3.13;;
18114;SDS011;9184;54.390;18.620;2024-03-17T00:22:27;16.33;;;4.47;;
18114;SDS011;9184;54.390;18.620;2024-03-17T00:22:58;15.30;;;3.83;;
18114;SDS011;9184;54.390;18.620;2024-03-17T00:23:28;29.20;;;4.30;;
18114;SDS011;9184;54.390;18.620;2024-03-17T00:23:59;11.90;;;4.10;;
18114;SDS011;9184;54.390;18.620;2024-03-17T00:24:29;21.67;;;4.00;;
18114;SDS011;9184;54.390;18.620;2024-03-17T00:25:05;15.07;;;4.00;;
18114;SDS011;9184;54.390;18.620;2024-03-17T00:25:35;14.23;;;3.53;;
18114;SDS011;9184;54.390;18.620;2024-03-17T00:26:07;22.43;;;3.73;;
18114;SDS011;9184;54.390;18.620;2024-03-17T00:26:38;16.53;;;4.47;;
18114;SDS011;9184;54.390;18.620;2024-03-17T00:27:08;18.17;;;3.60;;
18114;SDS011;9184;54.390;18.620;2024-03-17T00:27:40;18.93;;;4.13;;
18114;SDS011;9184;54.390;18.620;2024-03-17T00:28:13;15.53;;;3.27;;
18114;SDS011;9184;54.390;18.620;2024-03-17T00:28:44;24.80;;;4.83;;
18114;SDS011;9184;54.390;18.620;2024-03-17T00:29:18;18.90;;;4.23;;
18114;SDS011;9184;54.390;18.620;2024-03-17T00:29:48;22.67;;;3.70;;
18114;SDS011;9184;54.390;18.620;2024-03-17T00:30:19;17.50;;;4.03;;
18114;SDS011;9184;54.390;18.620;2024-03-17T00:30:50;15.75;;;3.45;;
18114;SDS011;9184;54.390;18.620;2024-03-17T00:31:20;20.27;;;4.50;;
18114;SDS011;9184;54.390;18.620;2024-03-17T00:31:51;22.33;;;4.50;;
18114;SDS011;9184;54.390;18.620;2024-03-17T00:32:21;11.73;;;3.80;;
18114;SDS011;9184;54.390;18.620;2024-03-17T00:32:53;14.47;;;3.53;;
18114;SDS011;9184;54.390;18.620;2024-03-17T00:33:24;16.40;;;3.57;;
18114;SDS011;9184;54.390;18.620;2024-03-17T00:33:54;12.50;;;3.95;;
18114;SDS011;9184;54.390;18.620;2024-03-17T00:34:25;16.97;;;3.53;;
18114;SDS011;9184;54.390;18.620;2024-03-17T00:34:55;15.77;;;3.73;;
18114;SDS011;9184;54.390;18.620;2024-03-17T00:35:26;14.47;;;4.03;;
18114;SDS011;9184;54.390;18.620;2024-03-17T00:35:58;23.40;;;4.80;;
18114;SDS011;9184;54.390;18.620;2024-03-17T00:36:29;15.10;;;3.80;;
18114;SDS011;9184;54.390;18.620;2024-03-17T00:37:00;16.70;;;3.20;;
18114;SDS011;9184;54.390;18.620;2024-03-17T00:37:30;12.07;;;3.10;;
18114;SDS011;9184;54.390;18.620;2024-03-17T00:38:01;15.47;;;3.27;;
18114;SDS011;9184;54.390;18.620;2024-03-17T00:38:34;19.33;;;3.77;;
18114;SDS011;9184;54.390;18.620;2024-03-17T00:39:05;23.00;;;3.73;;
18114;SDS011;9184;54.390;18.620;2024-03-17T00:39:35;12.18;;;2.95;;
18114;SDS011;9184;54.390;18.620;2024-03-17T00:40:06;21.95;;;3.78;;
18114;SDS011;9184;54.390;18.620;2024-03-17T00:40:37;15.20;;;2.83;;
18114;SDS011;9184;54.390;18.620;2024-03-17T00:41:07;19.10;;;3.50;;
18114;SDS011;9184;54.390;18.620;2024-03-17T00:41:37;13.37;;;3.83;;
18114;SDS011;9184;54.390;18.620;2024-03-17T00:42:09;20.33;;;4.23;;
18114;SDS011;9184;54.390;18.620;2024-03-17T00:42:41;12.68;;;3.50;;
18114;SDS011;9184;54.390;18.620;2024-03-17T00:43:12;20.58;;;3.70;;
18114;SDS011;9184;54.390;18.620;2024-03-17T00:43:42;17.45;;;3.88;;
18114;SDS011;9184;54.390;18.620;2024-03-17T00:44:13;22.48;;;3.97;;
18114;SDS011;9184;54.390;18.620;2024-03-17T00:44:43;8.00;;;2.90;;
18114;SDS011;9184;54.390;18.620;2024-03-17T00:45:14;16.60;;;4.47;;
18114;SDS011;9184;54.390;18.620;2024-03-17T00:45:50;13.80;;;3.27;;
18114;SDS011;9184;54.390;18.620;2024-03-17T00:46:21;12.30;;;3.23;;
18114;SDS011;9184;54.390;18.620;2024-03-17T00:46:52;9.40;;;2.60;;
18114;SDS011;9184;54.390;18.620;2024-03-17T00:47:23;19.17;;;3.53;;
18114;SDS011;9184;54.390;18.620;2024-03-17T00:47:53;21.00;;;4.00;;
18114;SDS011;9184;54.390;18.620;2024-03-17T00:48:24;16.50;;;3.83;;
18114;SDS011;9184;54.390;18.620;2024-03-17T00:48:55;21.20;;;4.13;;
18114;SDS011;9184;54.390;18.620;2024-03-17T00:49:26;12.77;;;3.03;;
18114;SDS011;9184;54.390;18.620;2024-03-17T00:49:57;24.80;;;3.90;;
18114;SDS011;9184;54.390;18.620;2024-03-17T00:50:27;16.70;;;4.30;;
18114;SDS011;9184;54.390;18.620;2024-03-17T00:50:57;13.68;;;3.58;;
18114;SDS011;9184;54.390;18.620;2024-03-17T00:51:28;17.10;;;3.50;;
18114;SDS011;9184;54.390;18.620;2024-03-17T00:51:59;17.23;;;3.63;;
18114;SDS011;9184;54.390;18.620;2024-03-17T00:52:30;22.70;;;4.27;;
18114;SDS011;9184;54.390;18.620;2024-03-17T00:53:01;17.13;;;3.93;;
18114;SDS011;9184;54.390;18.620;2024-03-17T00:53:33;15.60;;;3.27;;
18114;SDS011;9184;54.390;18.620;2024-03-17T00:54:04;19.63;;;3.43;;
18114;SDS011;9184;54.390;18.620;2024-03-17T00:54:34;23.03;;;4.57;;
18114;SDS011;9184;54.390;18.620;2024-03-17T00:55:05;14.80;;;3.93;;
18114;SDS011;9184;54.390;18.620;2024-03-17T00:55:36;18.13;;;3.37;;
18114;SDS011;9184;54.390;18.620;2024-03-17T00:56:07;15.33;;;3.50;;
18114;SDS011;9184;54.390;18.620;2024-03-17T00:56:37;15.57;;;3.57;;
18114;SDS011;9184;54.390;18.620;2024-03-17T00:57:08;15.03;;;3.97;;
18114;SDS011;9184;54.390;18.620;2024-03-17T00:57:38;19.77;;;4.30;;
18114;SDS011;9184;54.390;18.620;2024-03-17T00:58:10;20.00;;;3.70;;
18114;SDS011;9184;54.390;18.620;2024-03-17T00:58:40;21.13;;;3.87;;
18114;SDS011;9184;54.390;18.620;2024-03-17T00:59:11;20.27;;;3.70;;
18114;SDS011;9184;54.390;18.620;2024-03-17T00:59:43;19.73;;;4.17;;
18114;SDS011;9184;54.390;18.620;2024-03-17T01:00:14;17.80;;;3.93;;
18114;SDS011;9184;54.390;18.620;2024-03-17T01:00:45;19.57;;;3.70;;
18114;SDS011;9184;54.390;18.620;2024-03-17T01:01:17;19.73;;;4.03;;
18114;SDS011;9184;54.390;18.620;2024-03-17T01:01:49;16.27;;;3.83;;
18114;SDS011;9184;54.390;18.620;2024-03-17T01:02:19;17.93;;;4.07;;
18114;SDS011;9184;54.390;18.620;2024-03-17T01:02:52;14.23;;;3.50;;
18114;SDS011;9184;54.390;18.620;2024-03-17T01:03:22;14.50;;;3.53;;
18114;SDS011;9184;54.390;18.620;2024-03-17T01:03:53;22.93;;;4.37;;
18114;SDS011;9184;54.390;18.620;2024-03-17T01:04:23;16.47;;;3.87;;
18114;SDS011;9184;54.390;18.620;2024-03-17T01:04:54;18.27;;;3.60;;
18114;SDS011;9184;54.390;18.620;2024-03-17T01:05:24;13.97;;;4.07;;
18114;SDS011;9184;54.390;18.620;2024-03-17T01:05:55;17.13;;;3.67;;
18114;SDS011;9184;54.390;18.620;2024-03-17T01:06:26;24.23;;;4.57;;
18114;SDS011;9184;54.390;18.620;2024-03-17T01:06:57;20.70;;;3.90;;
18114;SDS011;9184;54.390;18.620;2024-03-17T01:07:27;14.50;;;3.47;;
18114;SDS011;9184;54.390;18.620;2024-03-17T01:07:58;12.77;;;3.43;;
18114;SDS011;9184;54.390;18.620;2024-03-17T01:08:28;13.07;;;3.23;;
18114;SDS011;9184;54.390;18.620;2024-03-17T01:08:59;17.43;;;4.43;;
18114;SDS011;9184;54.390;18.620;2024-03-17T01:09:31;15.67;;;4.10;;
18114;SDS011;9184;54.390;18.620;2024-03-17T01:10:01;21.07;;;4.53;;
18114;SDS011;9184;54.390;18.620;2024-03-17T01:10:32;24.53;;;3.97;;
18114;SDS011;9184;54.390;18.620;2024-03-17T01:11:02;15.83;;;4.93;;
18114;SDS011;9184;54.390;18.620;2024-03-17T01:11:33;25.60;;;4.30;;
18114;SDS011;9184;54.390;18.620;2024-03-17T01:12:03;18.20;;;3.43;;
18114;SDS011;9184;54.390;18.620;2024-03-17T01:12:34;19.00;;;4.07;;
18114;SDS011;9184;54.390;18.620;2024-03-17T01:13:05;20.47;;;4.40;;
18114;SDS011;9184;54.390;18.620;2024-03-17T01:13:38;16.57;;;4.10;;
18114;SDS011;9184;54.390;18.620;2024-03-17T01:14:11;17.87;;;3.57;;
18114;SDS011;9184;54.390;18.620;2024-03-17T01:14:42;15.17;;;4.17;;
18114;SDS011;9184;54.390;18.620;2024-03-17T01:15:12;18.13;;;4.30;;
18114;SDS011;9184;54.390;18.620;2024-03-17T01:15:43;18.23;;;3.13;;
18114;SDS011;9184;54.390;18.620;2024-03-17T01:16:14;21.27;;;4.27;;
18114;SDS011;9184;54.390;18.620;2024-03-17T01:16:45;18.83;;;3.03;;
18114;SDS011;9184;54.390;18.620;2024-03-17T01:17:16;13.33;;;3.40;;
18114;SDS011;9184;54.390;18.620;2024-03-17T01:17:49;15.57;;;4.17;;
18114;SDS011;9184;54.390;18.620;2024-03-17T01:18:20;16.07;;;3.80;;
18114;SDS011;9184;54.390;18.620;2024-03-17T01:18:51;15.43;;;3.33;;
18114;SDS011;9184;54.390;18.620;2024-03-17T01:19:21;24.33;;;4.03;;
18114;SDS011;9184;54.390;18.620;2024-03-17T01:19:52;20.33;;;3.90;;
18114;SDS011;9184;54.390;18.620;2024-03-17T01:20:23;13.70;;;3.40;;
18114;SDS011;9184;54.390;18.620;2024-03-17T01:20:54;9.13;;;3.00;;
18114;SDS011;9184;54.390;18.620;2024-03-17T01:21:24;13.00;;;3.20;;
18114;SDS011;9184;54.390;18.620;2024-03-17T01:21:54;12.37;;;3.00;;
18114;SDS011;9184;54.390;18.620;2024-03-17T01:22:25;16.57;;;3.67;;
18114;SDS011;9184;54.390;18.620;2024-03-17T01:22:56;13.73;;;3.87;;
18114;SDS011;9184;54.390;18.620;2024-03-17T01:23:26;16.07;;;3.90;;
18114;SDS011;9184;54.390;18.620;2024-03-17T01:23:58;10.47;;;3.83;;
18114;SDS011;9184;54.390;18.620;2024-03-17T01:24:28;14.27;;;3.57;;
18114;SDS011;9184;54.390;18.620;2024-03-17T01:25:01;19.43;;;3.33;;
18114;SDS011;9184;54.390;18.620;2024-03-17T01:25:32;19.77;;;3.73;;
18114;SDS011;9184;54.390;18.620;2024-03-17T01:26:06;16.30;;;3.80;;
18114;SDS011;9184;54.390;18.620;2024-03-17T01:26:37;15.67;;;3.27;;
18114;SDS011;9184;54.390;18.620;2024-03-17T01:27:08;12.10;;;4.27;;
18114;SDS011;9184;54.390;18.620;2024-03-17T01:27:44;17.80;;;3.43;;
18114;SDS011;9184;54.390;18.620;2024-03-17T01:28:14;13.10;;;3.97;;
18114;SDS011;9184;54.390;18.620;2024-03-17T01:28:46;13.30;;;4.00;;
18114;SDS011;9184;54.390;18.620;2024-03-17T01:29:17;21.83;;;4.10;;
18114;SDS011;9184;54.390;18.620;2024-03-17T01:29:48;19.73;;;4.43;;
18114;SDS011;9184;54.390;18.620;2024-03-17T01:30:19;9.90;;;3.23;;
18114;SDS011;9184;54.390;18.620;2024-03-17T01:30:49;23.30;;;3.97;;
18114;SDS011;9184;54.390;18.620;2024-03-17T01:31:20;21.77;;;3.57;;
18114;SDS011;9184;54.390;18.620;2024-03-17T01:31:50;16.20;;;4.50;;
18114;SDS011;9184;54.390;18.620;2024-03-17T01:32:21;12.87;;;3.47;;
18114;SDS011;9184;54.390;18.620;2024-03-17T01:32:51;15.20;;;3.03;;
18114;SDS011;9184;54.390;18.620;2024-03-17T01:33:23;17.80;;;3.50;;
18114;SDS011;9184;54.390;18.620;2024-03-17T01:33:53;17.77;;;3.10;;
18114;SDS011;9184;54.390;18.620;2024-03-17T01:34:24;16.60;;;3.50;;
18114;SDS011;9184;54.390;18.620;2024-03-17T01:34:54;18.10;;;4.63;;
18114;SDS011;9184;54.390;18.620;2024-03-17T01:35:25;18.97;;;3.20;;
18114;SDS011;9184;54.390;18.620;2024-03-17T01:35:56;13.30;;;3.40;;
18114;SDS011;9184;54.390;18.620;2024-03-17T01:36:27;12.40;;;3.57;;
18114;SDS011;9184;54.390;18.620;2024-03-17T01:36:57;14.73;;;3.50;;
18114;SDS011;9184;54.390;18.620;2024-03-17T01:37:28;14.53;;;3.33;;
18114;SDS011;9184;54.390;18.620;2024-03-17T01:38:02;11.27;;;2.93;;
18114;SDS011;9184;54.390;18.620;2024-03-17T01:38:32;17.33;;;4.00;;
18114;SDS011;9184;54.390;18.620;2024-03-17T01:39:02;15.60;;;3.40;;
18114;SDS011;9184;54.390;18.620;2024-03-17T01:39:33;16.77;;;3.17;;
18114;SDS011;9184;54.390;18.620;2024-03-17T01:40:04;12.73;;;3.20;;
18114;SDS011;9184;54.390;18.620;2024-03-17T01:40:38;19.60;;;4.10;;
18114;SDS011;9184;54.390;18.620;2024-03-17T01:41:08;13.13;;;3.17;;
18114;SDS011;9184;54.390;18.620;2024-03-17T01:41:39;16.83;;;3.40;;
18114;SDS011;9184;54.390;18.620;2024-03-17T01:42:10;15.87;;;3.50;;
18114;SDS011;9184;54.390;18.620;2024-03-17T01:42:41;16.63;;;3.23;;
18114;SDS011;9184;54.390;18.620;2024-03-17T01:43:12;16.37;;;3.10;;
18114;SDS011;9184;54.390;18.620;2024-03-17T01:43:42;14.40;;;3.57;;
18114;SDS011;9184;54.390;18.620;2024-03-17T01:44:23;10.17;;;2.70;;
18114;SDS011;9184;54.390;18.620;2024-03-17T01:44:54;11.93;;;3.33;;
18114;SDS011;9184;54.390;18.620;2024-03-17T01:45:26;9.83;;;2.90;;
18114;SDS011;9184;54.390;18.620;2024-03-17T01:45:57;11.83;;;3.13;;
18114;SDS011;9184;54.390;18.620;2024-03-17T01:46:28;12.57;;;2.97;;
18114;SDS011;9184;54.390;18.620;2024-03-17T01:46:59;19.23;;;3.53;;
18114;SDS011;9184;54.390;18.620;2024-03-17T01:47:30;13.40;;;3.30;;
18114;SDS011;9184;54.390;18.620;2024-03-17T01:48:02;9.80;;;2.23;;
18114;SDS011;9184;54.390;18.620;2024-03-17T01:48:34;8.77;;;3.23;;
18114;SDS011;9184;54.390;18.620;2024-03-17T01:49:04;12.87;;;3.20;;
18114;SDS011;9184;54.390;18.620;2024-03-17T01:49:35;12.07;;;2.77;;
18114;SDS011;9184;54.390;18.620;2024-03-17T01:50:06;9.93;;;2.70;;
18114;SDS011;9184;54.390;18.620;2024-03-17T01:50:38;10.93;;;2.70;;
18114;SDS011;9184;54.390;18.620;2024-03-17T01:51:10;12.20;;;3.00;;
18114;SDS011;9184;54.390;18.620;2024-03-17T01:51:40;14.17;;;2.57;;
18114;SDS011;9184;54.390;18.620;2024-03-17T01:52:12;9.40;;;2.70;;
18114;SDS011;9184;54.390;18.620;2024-03-17T01:52:43;10.10;;;2.93;;
18114;SDS011;9184;54.390;18.620;2024-03-17T01:53:14;19.77;;;3.27;;
18114;SDS011;9184;54.390;18.620;2024-03-17T01:53:45;8.73;;;2.57;;
18114;SDS011;9184;54.390;18.620;2024-03-17T01:54:16;10.90;;;3.17;;
18114;SDS011;9184;54.390;18.620;2024-03-17T01:54:48;13.33;;;2.97;;
18114;SDS011;9184;54.390;18.620;2024-03-17T01:55:18;6.83;;;2.07;;
18114;SDS011;9184;54.390;18.620;2024-03-17T01:55:49;14.23;;;2.57;;
18114;SDS011;9184;54.390;18.620;2024-03-17T01:56:19;10.40;;;2.77;;
18114;SDS011;9184;54.390;18.620;2024-03-17T01:56:50;14.57;;;2.90;;
18114;SDS011;9184;54.390;18.620;2024-03-17T01:57:20;13.33;;;3.07;;
18114;SDS011;9184;54.390;18.620;2024-03-17T01:57:51;11.30;;;2.93;;
18114;SDS011;9184;54.390;18.620;2024-03-17T01:58:23;12.53;;;2.70;;
18114;SDS011;9184;54.390;18.620;2024-03-17T01:58:55;17.37;;;2.87;;
18114;SDS011;9184;54.390;18.620;2024-03-17T01:59:26;11.93;;;2.80;;
18114;SDS011;9184;54.390;18.620;2024-03-17T01:59:57;14.67;;;2.77;;
18114;SDS011;9184;54.390;18.620;2024-03-17T02:00:28;13.00;;;2.87;;
18114;SDS011;9184;54.390;18.620;2024-03-17T02:01:01;9.90;;;2.90;;
18114;SDS011;9184;54.390;18.620;2024-03-17T02:01:31;10.93;;;2.67;;
18114;SDS011;9184;54.390;18.620;2024-03-17T02:02:02;7.17;;;2.17;;
18114;SDS011;9184;54.390;18.620;2024-03-17T02:02:33;16.43;;;2.73;;
18114;SDS011;9184;54.390;18.620;2024-03-17T02:03:04;5.10;;;2.17;;
18114;SDS011;9184;54.390;18.620;2024-03-17T02:03:34;10.83;;;2.47;;
18114;SDS011;9184;54.390;18.620;2024-03-17T02:04:05;10.67;;;2.77;;
18114;SDS011;9184;54.390;18.620;2024-03-17T02:04:35;17.17;;;3.23;;
18114;SDS011;9184;54.390;18.620;2024-03-17T02:05:06;7.10;;;2.43;;
18114;SDS011;9184;54.390;18.620;2024-03-17T02:05:37;8.23;;;2.50;;
18114;SDS011;9184;54.390;18.620;2024-03-17T02:06:08;7.20;;;2.83;;
18114;SDS011;9184;54.390;18.620;2024-03-17T02:06:39;8.73;;;2.30;;
18114;SDS011;9184;54.390;18.620;2024-03-17T02:07:10;13.43;;;2.83;;
18114;SDS011;9184;54.390;18.620;2024-03-17T02:07:40;7.60;;;2.23;;
18114;SDS011;9184;54.390;18.620;2024-03-17T02:08:11;9.20;;;2.80;;
18114;SDS011;9184;54.390;18.620;2024-03-17T02:08:47;8.03;;;2.17;;
18114;SDS011;9184;54.390;18.620;2024-03-17T02:09:19;8.73;;;2.10;;
18114;SDS011;9184;54.390;18.620;2024-03-17T02:09:51;9.30;;;2.33;;
18114;SDS011;9184;54.390;18.620;2024-03-17T02:10:21;6.60;;;2.33;;
18114;SDS011;9184;54.390;18.620;2024-03-17T02:10:52;8.97;;;2.67;;
18114;SDS011;9184;54.390;18.620;2024-03-17T02:11:26;5.20;;;1.97;;
18114;SDS011;9184;54.390;18.620;2024-03-17T02:11:57;7.17;;;2.13;;
18114;SDS011;9184;54.390;18.620;2024-03-17T02:12:28;4.00;;;1.67;;
18114;SDS011;9184;54.390;18.620;2024-03-17T02:13:01;5.73;;;2.23;;
18114;SDS011;9184;54.390;18.620;2024-03-17T02:13:33;5.43;;;2.20;;
18114;SDS011;9184;54.390;18.620;2024-03-17T02:14:03;7.37;;;1.97;;
18114;SDS011;9184;54.390;18.620;2024-03-17T02:14:37;4.93;;;2.43;;
18114;SDS011;9184;54.390;18.620;2024-03-17T02:15:08;5.83;;;2.23;;
18114;SDS011;9184;54.390;18.620;2024-03-17T02:15:39;6.17;;;1.97;;
18114;SDS011;9184;54.390;18.620;2024-03-17T02:16:10;6.60;;;1.90;;
18114;SDS011;9184;54.390;18.620;2024-03-17T02:16:41;6.73;;;1.90;;
18114;SDS011;9184;54.390;18.620;2024-03-17T02:17:11;10.83;;;2.30;;
18114;SDS011;9184;54.390;18.620;2024-03-17T02:17:42;11.17;;;2.70;;
18114;SDS011;9184;54.390;18.620;2024-03-17T02:18:12;12.07;;;2.50;;
18114;SDS011;9184;54.390;18.620;2024-03-17T02:18:43;7.23;;;2.33;;
18114;SDS011;9184;54.390;18.620;2024-03-17T02:19:14;10.33;;;2.17;;
18114;SDS011;9184;54.390;18.620;2024-03-17T02:19:45;5.90;;;1.93;;
18114;SDS011;9184;54.390;18.620;2024-03-17T02:20:16;6.53;;;2.17;;
18114;SDS011;9184;54.390;18.620;2024-03-17T02:20:48;10.90;;;2.40;;
18114;SDS011;9184;54.390;18.620;2024-03-17T02:21:29;5.33;;;1.90;;
18114;SDS011;9184;54.390;18.620;2024-03-17T02:22:00;4.50;;;1.90;;
18114;SDS011;9184;54.390;18.620;2024-03-17T02:22:32;10.03;;;2.13;;
18114;SDS011;9184;54.390;18.620;2024-03-17T02:23:03;6.37;;;2.37;;
18114;SDS011;9184;54.390;18.620;2024-03-17T02:23:34;10.60;;;2.70;;
18114;SDS011;9184;54.390;18.620;2024-03-17T02:24:04;6.07;;;1.93;;
18114;SDS011;9184;54.390;18.620;2024-03-17T02:24:35;6.30;;;2.33;;
18114;SDS011;9184;54.390;18.620;2024-03-17T02:25:06;7.20;;;2.47;;
18114;SDS011;9184;54.390;18.620;2024-03-17T02:25:38;6.57;;;1.90;;
18114;SDS011;9184;54.390;18.620;2024-03-17T02:26:10;8.30;;;2.60;;
18114;SDS011;9184;54.390;18.620;2024-03-17T02:26:40;8.90;;;2.37;;
18114;SDS011;9184;54.390;18.620;2024-03-17T02:27:10;5.10;;;1.90;;
18114;SDS011;9184;54.390;18.620;2024-03-17T02:27:41;7.40;;;2.50;;
18114;SDS011;9184;54.390;18.620;2024-03-17T02:28:11;8.17;;;2.57;;
18114;SDS011;9184;54.390;18.620;2024-03-17T02:28:43;3.87;;;2.13;;
18114;SDS011;9184;54.390;18.620;2024-03-17T02:29:13;4.40;;;1.80;;
18114;SDS011;9184;54.390;18.620;2024-03-17T02:29:45;8.90;;;2.30;;
18114;SDS011;9184;54.390;18.620;2024-03-17T02:30:15;5.40;;;1.87;;
18114;SDS011;9184;54.390;18.620;2024-03-17T02:30:46;7.63;;;2.23;;
18114;SDS011;9184;54.390;18.620;2024-03-17T02:31:16;8.67;;;2.60;;
18114;SDS011;9184;54.390;18.620;2024-03-17T02:31:47;7.30;;;2.20;;
18114;SDS011;9184;54.390;18.620;2024-03-17T02:32:17;7.87;;;2.00;;
18114;SDS011;9184;54.390;18.620;2024-03-17T02:32:51;9.00;;;2.40;;
18114;SDS011;9184;54.390;18.620;2024-03-17T02:33:22;4.83;;;1.73;;
18114;SDS011;9184;54.390;18.620;2024-03-17T02:33:53;6.77;;;1.93;;
18114;SDS011;9184;54.390;18.620;2024-03-17T02:34:23;7.80;;;2.27;;
18114;SDS011;9184;54.390;18.620;2024-03-17T02:34:54;5.03;;;1.93;;
18114;SDS011;9184;54.390;18.620;2024-03-17T02:35:24;4.53;;;1.73;;
18114;SDS011;9184;54.390;18.620;2024-03-17T02:35:55;4.73;;;2.00;;
18114;SDS011;9184;54.390;18.620;2024-03-17T02:36:25;5.63;;;1.70;;
18114;SDS011;9184;54.390;18.620;2024-03-17T02:36:56;8.03;;;2.10;;
18114;SDS011;9184;54.390;18.620;2024-03-17T02:37:27;12.30;;;2.50;;
18114;SDS011;9184;54.390;18.620;2024-03-17T02:38:00;9.13;;;2.20;;
18114;SDS011;9184;54.390;18.620;2024-03-17T02:38:30;3.23;;;1.97;;
18114;SDS011;9184;54.390;18.620;2024-03-17T02:39:19;7.53;;;1.70;;
18114;SDS011;9184;54.390;18.620;2024-03-17T02:40:04;3.47;;;1.80;;
18114;SDS011;9184;54.390;18.620;2024-03-17T02:40:36;5.00;;;2.03;;
18114;SDS011;9184;54.390;18.620;2024-03-17T02:41:06;5.27;;;1.63;;
18114;SDS011;9184;54.390;18.620;2024-03-17T02:41:36;2.90;;;1.73;;
18114;SDS011;9184;54.390;18.620;2024-03-17T02:42:08;7.60;;;2.37;;
18114;SDS011;9184;54.390;18.620;2024-03-17T02:42:39;4.20;;;1.90;;
18114;SDS011;9184;54.390;18.620;2024-03-17T02:43:12;8.53;;;2.03;;
18114;SDS011;9184;54.390;18.620;2024-03-17T02:43:42;3.33;;;1.57;;
18114;SDS011;9184;54.390;18.620;2024-03-17T02:44:12;7.23;;;1.70;;
18114;SDS011;9184;54.390;18.620;2024-03-17T02:44:44;5.60;;;1.80;;
18114;SDS011;9184;54.390;18.620;2024-03-17T02:45:14;4.13;;;1.87;;
18114;SDS011;9184;54.390;18.620;2024-03-17T02:45:45;6.97;;;1.73;;
18114;SDS011;9184;54.390;18.620;2024-03-17T02:46:17;5.53;;;1.90;;
18114;SDS011;9184;54.390;18.620;2024-03-17T02:46:48;5.43;;;1.87;;
18114;SDS011;9184;54.390;18.620;2024-03-17T02:47:19;7.23;;;1.70;;
18114;SDS011;9184;54.390;18.620;2024-03-17T02:47:50;6.40;;;1.63;;
18114;SDS011;9184;54.390;18.620;2024-03-17T02:48:20;3.70;;;2.00;;
18114;SDS011;9184;54.390;18.620;2024-03-17T02:48:52;3.63;;;1.70;;
18114;SDS011;9184;54.390;18.620;2024-03-17T02:49:23;8.83;;;1.93;;
18114;SDS011;9184;54.390;18.620;2024-03-17T02:49:53;5.93;;;1.87;;
18114;SDS011;9184;54.390;18.620;2024-03-17T02:50:25;4.30;;;1.93;;
18114;SDS011;9184;54.390;18.620;2024-03-17T02:50:55;7.37;;;1.97;;
18114;SDS011;9184;54.390;18.620;2024-03-17T02:51:26;4.63;;;1.80;;
18114;SDS011;9184;54.390;18.620;2024-03-17T02:51:56;1.87;;;1.40;;
18114;SDS011;9184;54.390;18.620;2024-03-17T02:52:27;4.00;;;1.80;;
18114;SDS011;9184;54.390;18.620;2024-03-17T02:53:00;5.47;;;1.90;;
18114;SDS011;9184;54.390;18.620;2024-03-17T02:53:33;7.30;;;2.03;;
18114;SDS011;9184;54.390;18.620;2024-03-17T02:54:03;5.17;;;2.37;;
18114;SDS011;9184;54.390;18.620;2024-03-17T02:54:34;6.03;;;1.70;;
18114;SDS011;9184;54.390;18.620;2024-03-17T02:55:06;4.87;;;1.83;;
18114;SDS011;9184;54.390;18.620;2024-03-17T02:55:36;11.03;;;2.13;;
18114;SDS011;9184;54.390;18.620;2024-03-17T02:56:07;3.13;;;1.80;;
18114;SDS011;9184;54.390;18.620;2024-03-17T02:56:37;5.13;;;1.90;;
18114;SDS011;9184;54.390;18.620;2024-03-17T02:57:09;4.30;;;1.87;;
18114;SDS011;9184;54.390;18.620;2024-03-17T02:57:39;7.23;;;1.90;;
18114;SDS011;9184;54.390;18.620;2024-03-17T02:58:10;3.73;;;1.40;;
18114;SDS011;9184;54.390;18.620;2024-03-17T02:58:41;3.50;;;1.57;;
18114;SDS011;9184;54.390;18.620;2024-03-17T02:59:13;3.70;;;1.53;;
18114;SDS011;9184;54.390;18.620;2024-03-17T02:59:43;4.30;;;1.27;;
18114;SDS011;9184;54.390;18.620;2024-03-17T03:00:15;5.00;;;1.63;;
18114;SDS011;9184;54.390;18.620;2024-03-17T03:00:46;2.43;;;1.50;;
18114;SDS011;9184;54.390;18.620;2024-03-17T03:01:16;2.27;;;1.37;;
18114;SDS011;9184;54.390;18.620;2024-03-17T03:01:48;7.40;;;2.20;;
18114;SDS011;9184;54.390;18.620;2024-03-17T03:02:18;5.23;;;1.67;;
18114;SDS011;9184;54.390;18.620;2024-03-17T03:02:49;1.77;;;1.47;;
18114;SDS011;9184;54.390;18.620;2024-03-17T03:03:19;6.63;;;2.03;;
18114;SDS011;9184;54.390;18.620;2024-03-17T03:03:50;4.00;;;1.50;;
18114;SDS011;9184;54.390;18.620;2024-03-17T03:04:21;7.50;;;2.00;;
18114;SDS011;9184;54.390;18.620;2024-03-17T03:04:52;3.00;;;1.80;;
18114;SDS011;9184;54.390;18.620;2024-03-17T03:05:22;5.13;;;2.20;;
18114;SDS011;9184;54.390;18.620;2024-03-17T03:05:53;6.50;;;1.73;;